Time,TemperatureF,DewpointF,PressureIn,WindDirection,WindDirectionDegrees,WindSpeedMPH,WindSpeedGustMPH,Humidity,HourlyPrecipIn,Conditions,Clouds,dailyrainin,SoftwareType,DateUTC
2013-03-07 00:02:00,37.0,-99.9,30.18,East,82,27.0,32.0,-999,-99.99,,,-99.99,,2013-03-07 05:02:00,
2013-03-07 00:12:00,37.0,-99.9,30.18,East,82,27.0,32.0,-999,-99.99,,,-99.99,,2013-03-07 05:12:00,
2013-03-07 00:23:00,37.0,-99.9,30.18,East,82,27.0,32.0,-999,-99.99,,,-99.99,,2013-03-07 05:23:00,
2013-03-07 00:30:00,36.0,-99.9,30.16,ENE,72,30.0,36.0,-999,-99.99,,,-99.99,,2013-03-07 05:30:00,
2013-03-07 00:42:00,37.0,-99.9,30.15,ENE,69,30.0,36.0,-999,-99.99,,,-99.99,,2013-03-07 05:42:00,
2013-03-07 00:53:00,37.0,-99.9,30.15,ENE,69,30.0,36.0,-999,-99.99,,,-99.99,,2013-03-07 05:53:00,
2013-03-07 01:02:00,36.0,-99.9,30.16,ENE,72,30.0,36.0,-999,-99.99,,,-99.99,,2013-03-07 06:02:00,
2013-03-07 01:11:00,36.0,-99.9,30.16,ENE,72,30.0,36.0,-999,-99.99,,,-99.99,,2013-03-07 06:11:00,
2013-03-07 01:22:00,36.0,-99.9,30.16,ENE,72,30.0,36.0,-999,-99.99,,,-99.99,,2013-03-07 06:22:00,
2013-03-07 01:30:00,36.0,-99.9,30.15,ENE,66,29.0,36.0,-999,-99.99,,,-99.99,,2013-03-07 06:30:00,
2013-03-07 01:42:00,36.0,-99.9,30.16,ENE,68,28.0,34.0,-999,-99.99,,,-99.99,,2013-03-07 06:42:00,
2013-03-07 01:52:00,36.0,-99.9,30.16,ENE,68,28.0,34.0,-999,-99.99,,,-99.99,,2013-03-07 06:52:00,
2013-03-07 02:02:00,36.0,-99.9,30.15,ENE,66,29.0,36.0,-999,-99.99,,,-99.99,,2013-03-07 07:02:00,
2013-03-07 02:11:00,36.0,-99.9,30.15,ENE,66,29.0,36.0,-999,-99.99,,,-99.99,,2013-03-07 07:11:00,
2013-03-07 02:22:00,36.0,-99.9,30.15,ENE,66,29.0,36.0,-999,-99.99,,,-99.99,,2013-03-07 07:22:00,
2013-03-07 08:30:00,35.0,-99.9,30.11,NE,54,36.0,43.0,-999,-99.99,,,-99.99,,2013-03-07 13:30:00,
2013-03-07 09:02:00,35.0,-99.9,30.11,NE,54,36.0,43.0,-999,-99.99,,,-99.99,,2013-03-07 14:02:00,
2013-03-07 09:13:00,35.0,-99.9,30.11,NE,54,36.0,43.0,-999,-99.99,,,-99.99,,2013-03-07 14:13:00,
2013-03-07 09:23:00,35.0,-99.9,30.11,NE,54,36.0,43.0,-999,-99.99,,,-99.99,,2013-03-07 14:23:00,
2013-03-07 09:30:00,36.0,-99.9,30.10,NE,55,35.0,44.0,-999,-99.99,,,-99.99,,2013-03-07 14:30:00,
2013-03-07 09:43:00,36.0,-99.9,30.11,NE,54,35.0,42.0,-999,-99.99,,,-99.99,,2013-03-07 14:43:00,
2013-03-07 09:54:00,36.0,-99.9,30.11,NE,54,35.0,42.0,-999,-99.99,,,-99.99,,2013-03-07 14:54:00,
2013-03-07 10:03:00,36.0,-99.9,30.10,NE,55,35.0,44.0,-999,-99.99,,,-99.99,,2013-03-07 15:03:00,
2013-03-07 10:13:00,36.0,-99.9,30.10,NE,55,35.0,44.0,-999,-99.99,,,-99.99,,2013-03-07 15:13:00,
2013-03-07 10:23:00,36.0,-99.9,30.10,NE,55,35.0,44.0,-999,-99.99,,,-99.99,,2013-03-07 15:23:00,
2013-03-07 10:30:00,36.0,-99.9,30.10,NE,45,36.0,44.0,-999,-99.99,,,-99.99,,2013-03-07 15:30:00,
2013-03-07 10:43:00,36.0,-99.9,30.11,NE,55,36.0,43.0,-999,-99.99,,,-99.99,,2013-03-07 15:43:00,
2013-03-07 10:53:00,36.0,-99.9,30.11,NE,55,36.0,43.0,-999,-99.99,,,-99.99,,2013-03-07 15:53:00,
2013-03-07 11:03:00,36.0,-99.9,30.10,NE,45,36.0,44.0,-999,-99.99,,,-99.99,,2013-03-07 16:03:00,
2013-03-07 11:13:00,36.0,-99.9,30.10,NE,45,36.0,44.0,-999,-99.99,,,-99.99,,2013-03-07 16:13:00,
2013-03-07 11:24:00,36.0,-99.9,30.10,NE,45,36.0,44.0,-999,-99.99,,,-99.99,,2013-03-07 16:24:00,
2013-03-07 11:30:00,35.0,-99.9,30.10,NE,45,38.0,47.0,-999,-99.99,,,-99.99,,2013-03-07 16:30:00,
2013-03-07 11:43:00,35.0,-99.9,30.10,NE,45,37.0,44.0,-999,-99.99,,,-99.99,,2013-03-07 16:43:00,
2013-03-07 11:53:00,35.0,-99.9,30.10,NE,45,37.0,44.0,-999,-99.99,,,-99.99,,2013-03-07 16:53:00,
2013-03-07 12:03:00,35.0,-99.9,30.10,NE,45,38.0,47.0,-999,-99.99,,,-99.99,,2013-03-07 17:03:00,
2013-03-07 12:12:00,35.0,-99.9,30.10,NE,45,38.0,47.0,-999,-99.99,,,-99.99,,2013-03-07 17:12:00,
2013-03-07 12:23:00,35.0,-99.9,30.10,NE,45,38.0,47.0,-999,-99.99,,,-99.99,,2013-03-07 17:23:00,
2013-03-07 12:30:00,35.0,-99.9,30.08,NE,46,35.0,43.0,-999,-99.99,,,-99.99,,2013-03-07 17:30:00,
2013-03-07 12:44:00,35.0,-99.9,30.09,NE,42,37.0,46.0,-999,-99.99,,,-99.99,,2013-03-07 17:44:00,
2013-03-07 12:55:00,35.0,-99.9,30.09,NE,42,37.0,46.0,-999,-99.99,,,-99.99,,2013-03-07 17:55:00,
2013-03-07 13:04:00,35.0,-99.9,30.08,NE,46,35.0,43.0,-999,-99.99,,,-99.99,,2013-03-07 18:04:00,
2013-03-07 13:13:00,35.0,-99.9,30.08,NE,46,35.0,43.0,-999,-99.99,,,-99.99,,2013-03-07 18:13:00,
2013-03-07 13:22:00,35.0,-99.9,30.08,NE,46,35.0,43.0,-999,-99.99,,,-99.99,,2013-03-07 18:22:00,
2013-03-07 13:43:00,36.0,-99.9,30.08,NE,46,36.0,43.0,-999,-99.99,,,-99.99,,2013-03-07 18:43:00,
2013-03-07 13:53:00,36.0,-99.9,30.08,NE,46,36.0,43.0,-999,-99.99,,,-99.99,,2013-03-07 18:53:00,
2013-03-07 14:03:00,36.0,-99.9,30.06,NE,45,38.0,46.0,-999,-99.99,,,-99.99,,2013-03-07 19:03:00,
2013-03-07 14:12:00,36.0,-99.9,30.06,NE,45,38.0,46.0,-999,-99.99,,,-99.99,,2013-03-07 19:12:00,
2013-03-07 14:24:00,36.0,-99.9,30.06,NE,45,38.0,46.0,-999,-99.99,,,-99.99,,2013-03-07 19:24:00,
2013-03-07 14:30:00,36.0,-99.9,30.06,NE,45,39.0,46.0,-999,-99.99,,,-99.99,,2013-03-07 19:30:00,
2013-03-07 14:44:00,36.0,-99.9,30.05,NE,46,37.0,43.0,-999,-99.99,,,-99.99,,2013-03-07 19:44:00,
2013-03-07 14:53:00,36.0,-99.9,30.05,NE,46,37.0,43.0,-999,-99.99,,,-99.99,,2013-03-07 19:53:00,
2013-03-07 15:02:00,36.0,-99.9,30.06,NE,45,39.0,46.0,-999,-99.99,,,-99.99,,2013-03-07 20:02:00,
2013-03-07 15:14:00,36.0,-99.9,30.06,NE,45,39.0,46.0,-999,-99.99,,,-99.99,,2013-03-07 20:14:00,
2013-03-07 15:23:00,36.0,-99.9,30.06,NE,45,39.0,46.0,-999,-99.99,,,-99.99,,2013-03-07 20:23:00,
2013-03-07 15:30:00,37.0,-99.9,30.05,NE,47,35.0,42.0,-999,-99.99,,,-99.99,,2013-03-07 20:30:00,
2013-03-07 15:43:00,37.0,-99.9,30.05,NE,45,38.0,48.0,-999,-99.99,,,-99.99,,2013-03-07 20:43:00,
2013-03-07 15:54:00,37.0,-99.9,30.05,NE,45,38.0,48.0,-999,-99.99,,,-99.99,,2013-03-07 20:54:00,
2013-03-07 16:03:00,37.0,-99.9,30.05,NE,47,35.0,42.0,-999,-99.99,,,-99.99,,2013-03-07 21:03:00,
2013-03-07 16:13:00,37.0,-99.9,30.05,NE,47,35.0,42.0,-999,-99.99,,,-99.99,,2013-03-07 21:13:00,
2013-03-07 16:23:00,37.0,-99.9,30.05,NE,47,35.0,42.0,-999,-99.99,,,-99.99,,2013-03-07 21:23:00,
2013-03-07 16:30:00,38.0,-99.9,30.05,NE,44,34.0,41.0,-999,-99.99,,,-99.99,,2013-03-07 21:30:00,
2013-03-07 16:43:00,38.0,-99.9,30.06,NE,48,33.0,40.0,-999,-99.99,,,-99.99,,2013-03-07 21:43:00,
2013-03-07 16:53:00,38.0,-99.9,30.06,NE,48,33.0,40.0,-999,-99.99,,,-99.99,,2013-03-07 21:53:00,
2013-03-07 17:02:00,38.0,-99.9,30.05,NE,44,34.0,41.0,-999,-99.99,,,-99.99,,2013-03-07 22:02:00,
2013-03-07 17:12:00,38.0,-99.9,30.05,NE,44,34.0,41.0,-999,-99.99,,,-99.99,,2013-03-07 22:12:00,
2013-03-07 17:23:00,38.0,-99.9,30.05,NE,44,34.0,41.0,-999,-99.99,,,-99.99,,2013-03-07 22:23:00,
2013-03-07 17:30:00,38.0,-99.9,30.05,NE,41,32.0,40.0,-999,-99.99,,,-99.99,,2013-03-07 22:30:00,
2013-03-07 17:44:00,38.0,-99.9,30.05,NE,45,34.0,41.0,-999,-99.99,,,-99.99,,2013-03-07 22:44:00,
2013-03-07 17:55:00,38.0,-99.9,30.05,NE,45,34.0,41.0,-999,-99.99,,,-99.99,,2013-03-07 22:55:00,
2013-03-07 18:03:00,38.0,-99.9,30.05,NE,41,32.0,40.0,-999,-99.99,,,-99.99,,2013-03-07 23:03:00,
2013-03-07 18:13:00,38.0,-99.9,30.05,NE,41,32.0,40.0,-999,-99.99,,,-99.99,,2013-03-07 23:13:00,
2013-03-07 18:22:00,38.0,-99.9,30.05,NE,41,32.0,40.0,-999,-99.99,,,-99.99,,2013-03-07 23:22:00,
2013-03-07 18:30:00,37.0,-99.9,30.04,NE,34,31.0,38.0,-999,-99.99,,,-99.99,,2013-03-07 23:30:00,
2013-03-07 18:44:00,38.0,-99.9,30.05,NE,39,32.0,41.0,-999,-99.99,,,-99.99,,2013-03-07 23:44:00,
2013-03-07 18:54:00,38.0,-99.9,30.05,NE,39,32.0,41.0,-999,-99.99,,,-99.99,,2013-03-07 23:54:00,
2013-03-07 19:05:00,37.0,-99.9,30.04,NE,34,31.0,38.0,-999,-99.99,,,-99.99,,2013-03-08 00:05:00,
2013-03-07 19:23:00,37.0,-99.9,30.04,NE,34,31.0,38.0,-999,-99.99,,,-99.99,,2013-03-08 00:23:00,
2013-03-07 19:30:00,37.0,-99.9,30.03,NE,36,34.0,40.0,-999,-99.99,,,-99.99,,2013-03-08 00:30:00,
2013-03-07 19:44:00,37.0,-99.9,30.03,NNE,33,34.0,40.0,-999,-99.99,,,-99.99,,2013-03-08 00:44:00,
2013-03-07 19:54:00,37.0,-99.9,30.03,NNE,33,34.0,40.0,-999,-99.99,,,-99.99,,2013-03-08 00:54:00,
2013-03-07 20:02:00,37.0,-99.9,30.03,NE,36,34.0,40.0,-999,-99.99,,,-99.99,,2013-03-08 01:02:00,
2013-03-07 20:12:00,37.0,-99.9,30.03,NE,36,34.0,40.0,-999,-99.99,,,-99.99,,2013-03-08 01:12:00,
2013-03-07 20:22:00,37.0,-99.9,30.03,NE,36,34.0,40.0,-999,-99.99,,,-99.99,,2013-03-08 01:22:00,
2013-03-07 20:30:00,37.0,-99.9,30.03,NE,38,34.0,41.0,-999,-99.99,,,-99.99,,2013-03-08 01:30:00,
2013-03-07 20:42:00,37.0,-99.9,30.03,NE,37,33.0,40.0,-999,-99.99,,,-99.99,,2013-03-08 01:42:00,
2013-03-07 20:52:00,37.0,-99.9,30.03,NE,37,33.0,40.0,-999,-99.99,,,-99.99,,2013-03-08 01:52:00,
2013-03-07 21:02:00,37.0,-99.9,30.03,NE,38,34.0,41.0,-999,-99.99,,,-99.99,,2013-03-08 02:02:00,
2013-03-07 21:12:00,37.0,-99.9,30.03,NE,38,34.0,41.0,-999,-99.99,,,-99.99,,2013-03-08 02:12:00,
2013-03-07 21:22:00,37.0,-99.9,30.03,NE,38,34.0,41.0,-999,-99.99,,,-99.99,,2013-03-08 02:22:00,
2013-03-07 21:30:00,36.0,-99.9,30.02,NE,39,34.0,41.0,-999,-99.99,,,-99.99,,2013-03-08 02:30:00,
2013-03-07 21:42:00,36.0,-99.9,30.03,NE,38,34.0,42.0,-999,-99.99,,,-99.99,,2013-03-08 02:42:00,
2013-03-07 21:53:00,36.0,-99.9,30.03,NE,38,34.0,42.0,-999,-99.99,,,-99.99,,2013-03-08 02:53:00,
2013-03-07 22:02:00,36.0,-99.9,30.02,NE,39,34.0,41.0,-999,-99.99,,,-99.99,,2013-03-08 03:02:00,
2013-03-07 22:12:00,36.0,-99.9,30.02,NE,39,34.0,41.0,-999,-99.99,,,-99.99,,2013-03-08 03:12:00,
2013-03-07 22:23:00,36.0,-99.9,30.02,NE,39,34.0,41.0,-999,-99.99,,,-99.99,,2013-03-08 03:23:00,
2013-03-07 22:30:00,36.0,-99.9,30.01,NE,40,35.0,41.0,-999,-99.99,,,-99.99,,2013-03-08 03:30:00,
2013-03-07 22:43:00,36.0,-99.9,30.02,NE,41,34.0,41.0,-999,-99.99,,,-99.99,,2013-03-08 03:43:00,
2013-03-07 22:53:00,36.0,-99.9,30.02,NE,41,34.0,41.0,-999,-99.99,,,-99.99,,2013-03-08 03:53:00,
2013-03-07 23:02:00,36.0,-99.9,30.01,NE,40,35.0,41.0,-999,-99.99,,,-99.99,,2013-03-08 04:02:00,
2013-03-07 23:12:00,36.0,-99.9,30.01,NE,40,35.0,41.0,-999,-99.99,,,-99.99,,2013-03-08 04:12:00,
2013-03-07 23:22:00,36.0,-99.9,30.01,NE,40,35.0,41.0,-999,-99.99,,,-99.99,,2013-03-08 04:22:00,
2013-03-07 23:30:00,35.0,-99.9,30.00,NE,38,33.0,40.0,-999,-99.99,,,-99.99,,2013-03-08 04:30:00,
2013-03-07 23:52:00,36.0,-99.9,30.00,NE,39,34.0,41.0,-999,-99.99,,,-99.99,,2013-03-08 04:52:00,